RYR1972 LEVC-GCTS
Flight info
| Callsign | RYR1972 |
|---|---|
| Flight time | 3h 19m |
| Altitude | 35000 |
| Route | ASTRO M985 PIMOS N869 GALTO UN869 RUSIK |
| Aircraft | B738/M-SDE2E3FGHIRWXY/LB1 |
Departure
| Time | 2026-05-06 05:05 |
|---|---|
| Airport | Valencia Airport (LEVC) |
Arrival
| Time | 2026-05-06 08:24 |
|---|---|
| Airport | Tenerife Sur Airport (GCTS) |
| Time | Latitude | Longitude | Altitude | Speed | Heading |
|---|---|---|---|---|---|
| 2026-05-06 04:53 | 39.49216 | -0.47615 | 208 ft | 0 kts | 116° |
| 2026-05-06 04:59 | 39.49213 | -0.47612 | 216 ft | 1 kts | 138° |
| 2026-05-06 04:59 | 39.49201 | -0.47615 | 217 ft | 2 kts | 209° |
| 2026-05-06 04:59 | 39.49196 | -0.47641 | 218 ft | 5 kts | 258° |
| 2026-05-06 04:59 | 39.49181 | -0.47696 | 211 ft | 8 kts | 234° |
| 2026-05-06 05:00 | 39.49125 | -0.47740 | 213 ft | 11 kts | 206° |
| 2026-05-06 05:00 | 39.49063 | -0.47751 | 208 ft | 8 kts | 121° |
| 2026-05-06 05:00 | 39.49060 | -0.47665 | 211 ft | 11 kts | 91° |
| 2026-05-06 05:00 | 39.49030 | -0.47561 | 213 ft | 14 kts | 117° |
| 2026-05-06 05:01 | 39.48982 | -0.47436 | 211 ft | 17 kts | 116° |
| 2026-05-06 05:01 | 39.48936 | -0.47313 | 211 ft | 8 kts | 116° |
| 2026-05-06 05:01 | 39.48898 | -0.47248 | 211 ft | 9 kts | 159° |
| 2026-05-06 05:01 | 39.48828 | -0.47211 | 211 ft | 12 kts | 157° |
| 2026-05-06 05:02 | 39.48751 | -0.47153 | 212 ft | 13 kts | 129° |
| 2026-05-06 05:02 | 39.48707 | -0.47041 | 217 ft | 15 kts | 116° |
| 2026-05-06 05:02 | 39.48655 | -0.46909 | 211 ft | 18 kts | 116° |
| 2026-05-06 05:02 | 39.48615 | -0.46810 | 214 ft | 11 kts | 119° |
| 2026-05-06 05:03 | 39.48560 | -0.46736 | 208 ft | 8 kts | 142° |
| 2026-05-06 05:03 | 39.48501 | -0.46692 | 217 ft | 11 kts | 158° |
| 2026-05-06 05:03 | 39.48422 | -0.46694 | 211 ft | 12 kts | 204° |
| 2026-05-06 05:03 | 39.48409 | -0.46787 | 213 ft | 9 kts | 294° |
| 2026-05-06 05:04 | 39.48448 | -0.46890 | 216 ft | 20 kts | 296° |
| 2026-05-06 05:04 | 39.48589 | -0.47260 | 210 ft | 81 kts | 296° |
| 2026-05-06 05:04 | 39.48939 | -0.48180 | 212 ft | 145 kts | 296° |
| 2026-05-06 05:04 | 39.49436 | -0.49478 | 623 ft | 168 kts | 297° |
| 2026-05-06 05:05 | 39.49986 | -0.50867 | 1360 ft | 176 kts | 297° |
| 2026-05-06 05:05 | 39.50574 | -0.52353 | 1885 ft | 200 kts | 296° |
| 2026-05-06 05:05 | 39.51243 | -0.54061 | 2121 ft | 225 kts | 296° |
| 2026-05-06 05:05 | 39.51972 | -0.55931 | 2551 ft | 237 kts | 297° |
| 2026-05-06 05:06 | 39.52719 | -0.57859 | 3013 ft | 251 kts | 294° |
| 2026-05-06 05:06 | 39.52976 | -0.60125 | 3461 ft | 264 kts | 259° |
| 2026-05-06 05:06 | 39.52147 | -0.62223 | 4289 ft | 265 kts | 223° |
| 2026-05-06 05:06 | 39.50543 | -0.63342 | 5185 ft | 266 kts | 194° |
| 2026-05-06 05:07 | 39.48701 | -0.63644 | 6018 ft | 270 kts | 179° |
| 2026-05-06 05:07 | 39.46821 | -0.63341 | 6812 ft | 275 kts | 169° |
| 2026-05-06 05:07 | 39.44962 | -0.62686 | 7637 ft | 278 kts | 163° |
| 2026-05-06 05:07 | 39.43092 | -0.62076 | 8434 ft | 278 kts | 179° |
| 2026-05-06 05:08 | 39.41198 | -0.62421 | 9281 ft | 274 kts | 203° |
| 2026-05-06 05:08 | 39.39585 | -0.63694 | 10105 ft | 273 kts | 223° |
| 2026-05-06 05:08 | 39.38298 | -0.65559 | 10529 ft | 289 kts | 232° |
| 2026-05-06 05:08 | 39.37034 | -0.67718 | 10715 ft | 312 kts | 234° |
| 2026-05-06 05:09 | 39.35704 | -0.70053 | 10977 ft | 331 kts | 234° |
| 2026-05-06 05:09 | 39.34321 | -0.72472 | 11592 ft | 337 kts | 234° |
| 2026-05-06 05:09 | 39.32919 | -0.74897 | 12402 ft | 337 kts | 234° |
| 2026-05-06 05:09 | 39.31507 | -0.77322 | 13225 ft | 338 kts | 234° |
| 2026-05-06 05:10 | 39.30083 | -0.79756 | 13959 ft | 340 kts | 234° |
| 2026-05-06 05:10 | 39.28647 | -0.82202 | 14597 ft | 344 kts | 234° |
| 2026-05-06 05:10 | 39.27193 | -0.84673 | 15218 ft | 348 kts | 234° |
| 2026-05-06 05:10 | 39.25720 | -0.87171 | 15814 ft | 351 kts | 234° |
| 2026-05-06 05:11 | 39.24230 | -0.89685 | 16433 ft | 355 kts | 234° |
| 2026-05-06 05:11 | 39.22741 | -0.92193 | 17034 ft | 358 kts | 234° |
| 2026-05-06 05:11 | 39.21217 | -0.94759 | 17632 ft | 362 kts | 235° |
| 2026-05-06 05:11 | 39.19675 | -0.97355 | 18213 ft | 366 kts | 235° |
| 2026-05-06 05:12 | 39.18116 | -0.99975 | 18747 ft | 370 kts | 235° |
| 2026-05-06 05:12 | 39.16547 | -1.02611 | 19316 ft | 371 kts | 234° |
| 2026-05-06 05:12 | 39.14974 | -1.05253 | 19888 ft | 373 kts | 234° |
| 2026-05-06 05:12 | 39.13393 | -1.07906 | 20419 ft | 375 kts | 234° |
| 2026-05-06 05:13 | 39.11796 | -1.10584 | 20938 ft | 377 kts | 234° |
| 2026-05-06 05:13 | 39.10194 | -1.13268 | 21470 ft | 379 kts | 234° |
| 2026-05-06 05:13 | 39.08582 | -1.15966 | 21975 ft | 381 kts | 234° |
| 2026-05-06 05:13 | 39.06961 | -1.18679 | 22470 ft | 384 kts | 234° |
| 2026-05-06 05:14 | 39.05325 | -1.21416 | 22954 ft | 386 kts | 234° |
| 2026-05-06 05:14 | 39.03680 | -1.24162 | 23435 ft | 388 kts | 234° |
| 2026-05-06 05:14 | 39.02026 | -1.26921 | 23847 ft | 390 kts | 234° |
| 2026-05-06 05:14 | 39.00366 | -1.29692 | 24256 ft | 392 kts | 234° |
| 2026-05-06 05:15 | 38.98697 | -1.32477 | 24656 ft | 394 kts | 234° |
| 2026-05-06 05:15 | 38.97023 | -1.35268 | 25041 ft | 395 kts | 234° |
| 2026-05-06 05:15 | 38.95910 | -1.37124 | 25310 ft | 396 kts | 234° |
| 2026-05-06 05:15 | 38.94221 | -1.39937 | 25663 ft | 398 kts | 234° |
| 2026-05-06 05:16 | 38.91972 | -1.43681 | 26131 ft | 401 kts | 234° |
| 2026-05-06 05:16 | 38.90263 | -1.46522 | 26503 ft | 402 kts | 234° |
| 2026-05-06 05:16 | 38.88549 | -1.49369 | 26853 ft | 404 kts | 235° |
| 2026-05-06 05:16 | 38.87385 | -1.51300 | 27089 ft | 405 kts | 235° |
| 2026-05-06 05:17 | 38.85659 | -1.54164 | 27433 ft | 407 kts | 235° |
| 2026-05-06 05:17 | 38.83925 | -1.57037 | 27769 ft | 408 kts | 235° |
| 2026-05-06 05:17 | 38.82183 | -1.59921 | 28087 ft | 410 kts | 235° |
| 2026-05-06 05:17 | 38.80435 | -1.62812 | 28437 ft | 411 kts | 235° |
| 2026-05-06 05:18 | 38.78687 | -1.65702 | 28902 ft | 409 kts | 235° |
| 2026-05-06 05:18 | 38.76950 | -1.68569 | 29423 ft | 405 kts | 235° |
| 2026-05-06 05:18 | 38.75228 | -1.71412 | 29928 ft | 403 kts | 235° |
| 2026-05-06 05:18 | 38.73512 | -1.74241 | 30310 ft | 402 kts | 235° |
| 2026-05-06 05:19 | 38.71795 | -1.77068 | 30642 ft | 401 kts | 235° |
| 2026-05-06 05:19 | 38.70084 | -1.79880 | 30991 ft | 400 kts | 235° |
| 2026-05-06 05:19 | 38.68398 | -1.82647 | 31365 ft | 398 kts | 235° |
| 2026-05-06 05:19 | 38.66674 | -1.85473 | 31724 ft | 397 kts | 235° |
| 2026-05-06 05:20 | 38.64999 | -1.88220 | 32046 ft | 396 kts | 235° |
| 2026-05-06 05:20 | 38.63305 | -1.90993 | 32397 ft | 395 kts | 235° |
| 2026-05-06 05:20 | 38.61616 | -1.93758 | 32751 ft | 393 kts | 235° |
| 2026-05-06 05:20 | 38.59934 | -1.96511 | 33094 ft | 392 kts | 235° |
| 2026-05-06 05:21 | 38.58257 | -1.99250 | 33419 ft | 391 kts | 235° |
| 2026-05-06 05:21 | 38.56582 | -2.01987 | 33729 ft | 390 kts | 235° |
| 2026-05-06 05:21 | 38.54913 | -2.04713 | 34040 ft | 389 kts | 235° |
| 2026-05-06 05:21 | 38.53245 | -2.07431 | 34296 ft | 388 kts | 235° |
| 2026-05-06 05:22 | 38.51575 | -2.10152 | 34493 ft | 389 kts | 235° |
| 2026-05-06 05:22 | 38.49902 | -2.12877 | 34673 ft | 390 kts | 235° |
| 2026-05-06 05:22 | 38.48229 | -2.15602 | 34891 ft | 390 kts | 235° |
| 2026-05-06 05:22 | 38.46553 | -2.18329 | 34993 ft | 392 kts | 235° |
| 2026-05-06 05:23 | 38.44864 | -2.21078 | 34998 ft | 393 kts | 235° |
| 2026-05-06 05:23 | 38.39845 | -2.29228 | 34993 ft | 388 kts | 235° |
| 2026-05-06 05:24 | 38.36521 | -2.34612 | 34998 ft | 385 kts | 234° |
| 2026-05-06 05:24 | 38.32919 | -2.39668 | 34996 ft | 385 kts | 230° |
| 2026-05-06 05:25 | 38.29208 | -2.44601 | 34997 ft | 386 kts | 230° |
| 2026-05-06 05:25 | 38.25498 | -2.49544 | 34996 ft | 386 kts | 230° |
| 2026-05-06 05:26 | 38.21783 | -2.54510 | 34996 ft | 388 kts | 230° |
| 2026-05-06 05:26 | 38.18054 | -2.59496 | 34988 ft | 390 kts | 230° |
| 2026-05-06 05:27 | 38.14305 | -2.64504 | 34992 ft | 392 kts | 230° |
| 2026-05-06 05:27 | 38.10534 | -2.69531 | 34995 ft | 394 kts | 230° |
| 2026-05-06 05:28 | 38.06743 | -2.74578 | 34992 ft | 396 kts | 230° |
| 2026-05-06 05:28 | 38.02935 | -2.79639 | 34983 ft | 397 kts | 230° |
| 2026-05-06 05:29 | 37.99166 | -2.84641 | 35001 ft | 397 kts | 230° |
| 2026-05-06 05:29 | 37.95351 | -2.89694 | 34977 ft | 396 kts | 230° |
| 2026-05-06 05:30 | 37.91537 | -2.94718 | 34974 ft | 396 kts | 230° |
| 2026-05-06 05:30 | 37.87720 | -2.99732 | 34987 ft | 394 kts | 230° |
| 2026-05-06 05:31 | 37.83916 | -3.04726 | 34986 ft | 394 kts | 230° |
| 2026-05-06 05:31 | 37.80140 | -3.09678 | 34987 ft | 393 kts | 230° |
| 2026-05-06 05:32 | 37.76346 | -3.14646 | 34982 ft | 392 kts | 230° |
| 2026-05-06 05:32 | 37.72558 | -3.19598 | 34986 ft | 391 kts | 230° |
| 2026-05-06 05:33 | 37.68791 | -3.24533 | 34984 ft | 390 kts | 230° |
| 2026-05-06 05:33 | 37.65036 | -3.29453 | 34990 ft | 389 kts | 230° |
| 2026-05-06 05:34 | 37.61278 | -3.34370 | 34993 ft | 389 kts | 230° |
| 2026-05-06 05:34 | 37.57517 | -3.39282 | 34988 ft | 390 kts | 230° |
| 2026-05-06 05:35 | 37.53743 | -3.44203 | 34988 ft | 391 kts | 230° |
| 2026-05-06 05:35 | 37.49959 | -3.49129 | 34988 ft | 392 kts | 230° |
| 2026-05-06 05:36 | 37.46160 | -3.54069 | 34983 ft | 393 kts | 230° |
| 2026-05-06 05:36 | 37.42388 | -3.58966 | 34969 ft | 394 kts | 229° |
| 2026-05-06 05:37 | 37.38563 | -3.63921 | 34974 ft | 395 kts | 229° |
| 2026-05-06 05:37 | 37.34735 | -3.68865 | 34971 ft | 395 kts | 229° |
| 2026-05-06 05:38 | 37.30897 | -3.73812 | 34966 ft | 395 kts | 229° |
| 2026-05-06 05:38 | 37.27058 | -3.78756 | 34962 ft | 395 kts | 229° |
| 2026-05-06 05:39 | 37.23222 | -3.83690 | 34967 ft | 395 kts | 229° |
| 2026-05-06 05:39 | 37.19385 | -3.88617 | 34967 ft | 394 kts | 229° |
| 2026-05-06 05:40 | 37.15553 | -3.93531 | 34969 ft | 394 kts | 229° |
| 2026-05-06 05:40 | 37.11728 | -3.98428 | 34969 ft | 393 kts | 229° |
| 2026-05-06 05:41 | 37.07904 | -4.03316 | 34963 ft | 392 kts | 229° |
| 2026-05-06 05:41 | 37.04109 | -4.08160 | 34960 ft | 392 kts | 229° |
| 2026-05-06 05:42 | 37.00299 | -4.13016 | 34951 ft | 391 kts | 229° |
| 2026-05-06 05:42 | 36.96525 | -4.17818 | 34932 ft | 391 kts | 229° |
| 2026-05-06 05:43 | 36.92711 | -4.22666 | 34930 ft | 391 kts | 229° |
| 2026-05-06 05:43 | 36.88938 | -4.27453 | 34922 ft | 391 kts | 229° |
| 2026-05-06 05:44 | 36.85124 | -4.32287 | 34920 ft | 390 kts | 229° |
| 2026-05-06 05:44 | 36.81237 | -4.37025 | 34913 ft | 393 kts | 223° |
| 2026-05-06 05:45 | 36.76652 | -4.40848 | 34908 ft | 398 kts | 217° |
| 2026-05-06 05:45 | 36.71964 | -4.44519 | 34907 ft | 398 kts | 217° |
| 2026-05-06 05:46 | 36.67316 | -4.48179 | 34912 ft | 397 kts | 217° |
| 2026-05-06 05:46 | 36.62652 | -4.51866 | 34908 ft | 397 kts | 217° |
| 2026-05-06 05:47 | 36.57995 | -4.55548 | 34915 ft | 396 kts | 217° |
| 2026-05-06 05:47 | 36.53338 | -4.59225 | 34911 ft | 396 kts | 217° |
| 2026-05-06 05:48 | 36.48683 | -4.62895 | 34918 ft | 396 kts | 217° |
| 2026-05-06 05:48 | 36.44037 | -4.66553 | 34921 ft | 395 kts | 217° |
| 2026-05-06 05:49 | 36.39396 | -4.70201 | 34919 ft | 395 kts | 217° |
| 2026-05-06 05:49 | 36.34761 | -4.73841 | 34927 ft | 394 kts | 217° |
| 2026-05-06 05:50 | 36.30130 | -4.77471 | 34928 ft | 394 kts | 217° |
| 2026-05-06 05:50 | 36.25500 | -4.81096 | 34928 ft | 393 kts | 217° |
| 2026-05-06 05:51 | 36.20875 | -4.84712 | 34934 ft | 393 kts | 217° |
| 2026-05-06 05:51 | 36.16246 | -4.88326 | 34936 ft | 393 kts | 217° |
| 2026-05-06 05:52 | 36.11656 | -4.91937 | 34940 ft | 393 kts | 217° |
| 2026-05-06 05:52 | 36.07033 | -4.95616 | 34944 ft | 393 kts | 217° |
| 2026-05-06 05:53 | 36.02434 | -4.99271 | 34942 ft | 393 kts | 217° |
| 2026-05-06 05:53 | 35.97888 | -5.02874 | 34938 ft | 393 kts | 217° |
| 2026-05-06 05:54 | 35.93278 | -5.06521 | 34938 ft | 394 kts | 217° |
| 2026-05-06 05:54 | 35.88663 | -5.10168 | 34943 ft | 394 kts | 217° |
| 2026-05-06 05:55 | 35.84078 | -5.13784 | 34935 ft | 394 kts | 217° |
| 2026-05-06 05:55 | 35.79635 | -5.17693 | 34945 ft | 392 kts | 221° |
| 2026-05-06 05:56 | 35.75280 | -5.21742 | 34935 ft | 392 kts | 221° |
| 2026-05-06 05:56 | 35.70922 | -5.25786 | 34912 ft | 392 kts | 221° |
| 2026-05-06 05:57 | 35.66555 | -5.29816 | 34904 ft | 393 kts | 221° |
| 2026-05-06 05:57 | 35.62181 | -5.33836 | 34909 ft | 393 kts | 221° |
| 2026-05-06 05:58 | 35.57799 | -5.37854 | 34911 ft | 393 kts | 221° |
| 2026-05-06 05:58 | 35.53410 | -5.41873 | 34906 ft | 394 kts | 221° |
| 2026-05-06 05:59 | 35.49017 | -5.45891 | 34912 ft | 394 kts | 220° |
| 2026-05-06 05:59 | 35.44620 | -5.49906 | 34926 ft | 394 kts | 221° |
| 2026-05-06 06:00 | 35.40220 | -5.53919 | 34928 ft | 394 kts | 220° |
| 2026-05-06 06:00 | 35.35824 | -5.57920 | 34954 ft | 394 kts | 220° |
| 2026-05-06 06:01 | 35.31453 | -5.61896 | 34969 ft | 394 kts | 220° |
| 2026-05-06 06:01 | 35.27052 | -5.65893 | 34967 ft | 394 kts | 220° |
| 2026-05-06 06:02 | 35.22656 | -5.69879 | 34982 ft | 393 kts | 220° |
| 2026-05-06 06:02 | 35.18263 | -5.73857 | 34977 ft | 393 kts | 220° |
| 2026-05-06 06:03 | 35.13868 | -5.77832 | 34984 ft | 393 kts | 220° |
| 2026-05-06 06:03 | 35.09470 | -5.81805 | 34972 ft | 393 kts | 220° |
| 2026-05-06 06:04 | 35.05070 | -5.85772 | 34976 ft | 393 kts | 220° |
| 2026-05-06 06:04 | 35.01414 | -5.89066 | 34971 ft | 393 kts | 220° |
| 2026-05-06 06:05 | 34.97061 | -5.92982 | 34970 ft | 394 kts | 220° |
| 2026-05-06 06:05 | 34.92646 | -5.96948 | 34979 ft | 394 kts | 220° |
| 2026-05-06 06:06 | 34.88230 | -6.00910 | 34980 ft | 394 kts | 220° |
| 2026-05-06 06:06 | 34.83809 | -6.04871 | 34975 ft | 395 kts | 220° |
| 2026-05-06 06:07 | 34.79379 | -6.08835 | 34974 ft | 396 kts | 220° |
| 2026-05-06 06:07 | 34.74942 | -6.12800 | 34972 ft | 396 kts | 220° |
| 2026-05-06 06:08 | 34.70504 | -6.16760 | 34965 ft | 396 kts | 220° |
| 2026-05-06 06:08 | 34.66066 | -6.20715 | 34974 ft | 396 kts | 220° |
| 2026-05-06 06:09 | 34.61624 | -6.24667 | 34972 ft | 396 kts | 219° |
| 2026-05-06 06:09 | 34.57182 | -6.28615 | 34975 ft | 395 kts | 219° |
| 2026-05-06 06:10 | 34.52747 | -6.32551 | 34954 ft | 395 kts | 219° |
| 2026-05-06 06:10 | 34.48340 | -6.36457 | 34965 ft | 395 kts | 219° |
| 2026-05-06 06:11 | 34.43907 | -6.40380 | 34968 ft | 394 kts | 219° |
| 2026-05-06 06:11 | 34.39477 | -6.44296 | 34966 ft | 394 kts | 219° |
| 2026-05-06 06:12 | 34.35057 | -6.48197 | 34965 ft | 393 kts | 219° |
| 2026-05-06 06:12 | 34.30633 | -6.52098 | 34970 ft | 393 kts | 219° |
| 2026-05-06 06:13 | 34.26217 | -6.55986 | 34971 ft | 392 kts | 219° |
| 2026-05-06 06:13 | 34.21804 | -6.59866 | 34969 ft | 392 kts | 219° |
| 2026-05-06 06:14 | 34.17396 | -6.63737 | 34964 ft | 391 kts | 219° |
| 2026-05-06 06:14 | 34.12995 | -6.67598 | 34969 ft | 391 kts | 219° |
| 2026-05-06 06:15 | 34.08595 | -6.71453 | 34964 ft | 391 kts | 219° |
| 2026-05-06 06:15 | 34.04195 | -6.75290 | 34964 ft | 390 kts | 219° |
| 2026-05-06 06:16 | 33.99775 | -6.78955 | 34970 ft | 390 kts | 218° |
| 2026-05-06 06:16 | 33.95278 | -6.82622 | 34968 ft | 390 kts | 218° |
| 2026-05-06 06:17 | 33.90801 | -6.86282 | 34969 ft | 389 kts | 218° |
| 2026-05-06 06:17 | 33.86333 | -6.89943 | 34976 ft | 388 kts | 218° |
| 2026-05-06 06:18 | 33.81878 | -6.93594 | 34985 ft | 387 kts | 218° |
| 2026-05-06 06:18 | 33.77463 | -6.97209 | 34991 ft | 386 kts | 218° |
| 2026-05-06 06:19 | 33.73032 | -7.00832 | 34991 ft | 385 kts | 218° |
| 2026-05-06 06:19 | 33.68582 | -7.04465 | 34989 ft | 383 kts | 219° |
| 2026-05-06 06:20 | 33.64212 | -7.08029 | 34995 ft | 382 kts | 219° |
| 2026-05-06 06:20 | 33.59823 | -7.11604 | 34992 ft | 380 kts | 219° |
| 2026-05-06 06:21 | 33.55462 | -7.15152 | 34998 ft | 378 kts | 219° |
| 2026-05-06 06:21 | 33.51119 | -7.18681 | 34992 ft | 376 kts | 219° |
| 2026-05-06 06:22 | 33.46797 | -7.22188 | 34996 ft | 374 kts | 219° |
| 2026-05-06 06:22 | 33.42497 | -7.25674 | 34997 ft | 373 kts | 219° |
| 2026-05-06 06:23 | 33.38212 | -7.29143 | 34998 ft | 371 kts | 219° |
| 2026-05-06 06:23 | 33.33938 | -7.32599 | 35000 ft | 370 kts | 219° |
| 2026-05-06 06:24 | 33.29683 | -7.36036 | 34993 ft | 369 kts | 219° |
| 2026-05-06 06:24 | 33.25431 | -7.39466 | 34997 ft | 368 kts | 219° |
| 2026-05-06 06:25 | 33.21194 | -7.42881 | 34995 ft | 368 kts | 219° |
| 2026-05-06 06:26 | 33.14830 | -7.48003 | 34993 ft | 367 kts | 219° |
| 2026-05-06 06:26 | 33.10571 | -7.51364 | 34996 ft | 368 kts | 217° |
| 2026-05-06 06:27 | 33.06194 | -7.54455 | 35000 ft | 368 kts | 216° |
| 2026-05-06 06:27 | 33.01767 | -7.57530 | 34998 ft | 368 kts | 217° |
| 2026-05-06 06:28 | 32.97406 | -7.60580 | 34998 ft | 367 kts | 217° |
| 2026-05-06 06:28 | 32.93004 | -7.63668 | 35006 ft | 366 kts | 217° |
| 2026-05-06 06:29 | 32.88632 | -7.66735 | 35002 ft | 366 kts | 217° |
| 2026-05-06 06:29 | 32.84247 | -7.69804 | 34999 ft | 365 kts | 217° |
| 2026-05-06 06:30 | 32.79873 | -7.72865 | 35002 ft | 364 kts | 217° |
| 2026-05-06 06:30 | 32.75509 | -7.75918 | 35000 ft | 363 kts | 217° |
| 2026-05-06 06:31 | 32.71179 | -7.78945 | 34999 ft | 362 kts | 217° |
| 2026-05-06 06:31 | 32.66834 | -7.81978 | 35002 ft | 362 kts | 217° |
| 2026-05-06 06:32 | 32.62504 | -7.84998 | 34998 ft | 361 kts | 217° |
| 2026-05-06 06:32 | 32.58183 | -7.88008 | 34998 ft | 360 kts | 217° |
| 2026-05-06 06:33 | 32.53876 | -7.91004 | 35000 ft | 358 kts | 217° |
| 2026-05-06 06:33 | 32.49581 | -7.93990 | 35007 ft | 357 kts | 217° |
| 2026-05-06 06:34 | 32.45293 | -7.96967 | 35013 ft | 357 kts | 217° |
| 2026-05-06 06:34 | 32.41012 | -7.99936 | 35003 ft | 356 kts | 217° |
| 2026-05-06 06:35 | 32.36731 | -8.02902 | 35006 ft | 356 kts | 217° |
| 2026-05-06 06:35 | 32.32459 | -8.05859 | 35007 ft | 356 kts | 217° |
| 2026-05-06 06:36 | 32.28212 | -8.08794 | 35009 ft | 356 kts | 217° |
| 2026-05-06 06:36 | 32.23937 | -8.11747 | 35008 ft | 356 kts | 217° |
| 2026-05-06 06:37 | 32.19659 | -8.14698 | 35008 ft | 356 kts | 217° |
| 2026-05-06 06:37 | 32.15376 | -8.17650 | 35009 ft | 356 kts | 217° |
| 2026-05-06 06:38 | 32.11086 | -8.20594 | 35007 ft | 357 kts | 217° |
| 2026-05-06 06:38 | 32.06770 | -8.23497 | 35007 ft | 357 kts | 216° |
| 2026-05-06 06:39 | 32.02450 | -8.26389 | 35006 ft | 357 kts | 216° |
| 2026-05-06 06:39 | 31.98163 | -8.29259 | 35007 ft | 357 kts | 216° |
| 2026-05-06 06:40 | 31.93844 | -8.32152 | 35006 ft | 357 kts | 216° |
| 2026-05-06 06:40 | 31.89546 | -8.35028 | 35005 ft | 357 kts | 216° |
| 2026-05-06 06:41 | 31.85220 | -8.37921 | 35012 ft | 357 kts | 216° |
| 2026-05-06 06:41 | 31.80896 | -8.40810 | 35006 ft | 358 kts | 216° |
| 2026-05-06 06:42 | 31.76570 | -8.43697 | 35005 ft | 358 kts | 216° |
| 2026-05-06 06:42 | 31.72242 | -8.46581 | 35003 ft | 357 kts | 216° |
| 2026-05-06 06:43 | 31.67916 | -8.49462 | 35011 ft | 357 kts | 216° |
| 2026-05-06 06:43 | 31.63603 | -8.52330 | 35008 ft | 356 kts | 216° |
| 2026-05-06 06:44 | 31.59288 | -8.55197 | 35013 ft | 356 kts | 216° |
| 2026-05-06 06:44 | 31.54979 | -8.58057 | 35008 ft | 356 kts | 216° |
| 2026-05-06 06:45 | 31.50670 | -8.60914 | 35008 ft | 356 kts | 216° |
| 2026-05-06 06:45 | 31.46391 | -8.63748 | 35006 ft | 356 kts | 216° |
| 2026-05-06 06:46 | 31.42080 | -8.66600 | 35000 ft | 356 kts | 216° |
| 2026-05-06 06:46 | 31.37769 | -8.69449 | 34998 ft | 356 kts | 216° |
| 2026-05-06 06:47 | 31.33448 | -8.72302 | 35000 ft | 356 kts | 216° |
| 2026-05-06 06:47 | 31.29131 | -8.75150 | 34996 ft | 357 kts | 216° |
| 2026-05-06 06:48 | 31.24806 | -8.77999 | 34996 ft | 357 kts | 216° |
| 2026-05-06 06:48 | 31.20471 | -8.80852 | 34988 ft | 358 kts | 216° |
| 2026-05-06 06:49 | 31.16133 | -8.83703 | 34983 ft | 358 kts | 216° |
| 2026-05-06 06:49 | 31.11789 | -8.86556 | 34978 ft | 359 kts | 216° |
| 2026-05-06 06:50 | 31.07443 | -8.89407 | 34980 ft | 358 kts | 216° |
| 2026-05-06 06:50 | 31.03095 | -8.92256 | 34970 ft | 359 kts | 216° |
| 2026-05-06 06:51 | 30.98817 | -8.95057 | 34980 ft | 360 kts | 216° |
| 2026-05-06 06:51 | 30.94440 | -8.97919 | 34967 ft | 361 kts | 215° |
| 2026-05-06 06:52 | 30.90058 | -9.00781 | 34957 ft | 361 kts | 215° |
| 2026-05-06 06:52 | 30.85681 | -9.03637 | 34955 ft | 360 kts | 215° |
| 2026-05-06 06:53 | 30.81318 | -9.06480 | 34956 ft | 359 kts | 215° |
| 2026-05-06 06:53 | 30.77699 | -9.08836 | 34950 ft | 358 kts | 215° |
| 2026-05-06 06:54 | 30.73365 | -9.11656 | 34951 ft | 356 kts | 215° |
| 2026-05-06 06:54 | 30.69048 | -9.14462 | 34947 ft | 355 kts | 215° |
| 2026-05-06 06:55 | 30.64022 | -9.17726 | 34938 ft | 356 kts | 215° |
| 2026-05-06 06:55 | 30.60420 | -9.20063 | 34946 ft | 356 kts | 215° |
| 2026-05-06 06:56 | 30.56091 | -9.22868 | 34944 ft | 356 kts | 215° |
| 2026-05-06 06:56 | 30.51757 | -9.25673 | 34940 ft | 356 kts | 215° |
| 2026-05-06 06:57 | 30.47428 | -9.28473 | 34936 ft | 356 kts | 215° |
| 2026-05-06 06:57 | 30.43101 | -9.31269 | 34941 ft | 356 kts | 215° |
| 2026-05-06 06:58 | 30.38771 | -9.34064 | 34936 ft | 356 kts | 215° |
| 2026-05-06 06:58 | 30.34598 | -9.37096 | 34939 ft | 350 kts | 225° |
| 2026-05-06 06:59 | 30.31326 | -9.41229 | 34943 ft | 348 kts | 234° |
| 2026-05-06 06:59 | 30.29026 | -9.46152 | 34943 ft | 349 kts | 243° |
| 2026-05-06 07:00 | 30.27035 | -9.51248 | 34942 ft | 351 kts | 244° |
| 2026-05-06 07:00 | 30.25025 | -9.56402 | 34939 ft | 352 kts | 244° |
| 2026-05-06 07:01 | 30.22994 | -9.61563 | 34940 ft | 353 kts | 243° |
| 2026-05-06 07:01 | 30.20948 | -9.66734 | 34942 ft | 354 kts | 243° |
| 2026-05-06 07:02 | 30.18891 | -9.71916 | 34944 ft | 354 kts | 243° |
| 2026-05-06 07:02 | 30.16830 | -9.77100 | 34941 ft | 355 kts | 243° |
| 2026-05-06 07:03 | 30.14767 | -9.82278 | 34943 ft | 355 kts | 243° |
| 2026-05-06 07:03 | 30.12704 | -9.87450 | 34943 ft | 354 kts | 243° |
| 2026-05-06 07:04 | 30.10653 | -9.92585 | 34943 ft | 354 kts | 243° |
| 2026-05-06 07:04 | 30.08589 | -9.97745 | 34946 ft | 354 kts | 243° |
| 2026-05-06 07:05 | 30.06523 | -10.02903 | 34947 ft | 353 kts | 243° |
| 2026-05-06 07:05 | 30.04458 | -10.08051 | 34945 ft | 353 kts | 243° |
| 2026-05-06 07:06 | 30.02395 | -10.13188 | 34948 ft | 352 kts | 243° |
| 2026-05-06 07:06 | 30.00334 | -10.18311 | 34952 ft | 352 kts | 243° |
| 2026-05-06 07:07 | 29.98291 | -10.23384 | 34950 ft | 352 kts | 243° |
| 2026-05-06 07:07 | 29.96225 | -10.28505 | 34953 ft | 352 kts | 243° |
| 2026-05-06 07:08 | 29.94172 | -10.33589 | 34953 ft | 352 kts | 243° |
| 2026-05-06 07:08 | 29.92104 | -10.38701 | 34955 ft | 352 kts | 243° |
| 2026-05-06 07:09 | 29.90031 | -10.43822 | 34958 ft | 352 kts | 243° |
| 2026-05-06 07:09 | 29.87956 | -10.48937 | 34959 ft | 352 kts | 243° |
| 2026-05-06 07:10 | 29.85881 | -10.54049 | 34961 ft | 352 kts | 243° |
| 2026-05-06 07:10 | 29.83800 | -10.59165 | 34960 ft | 353 kts | 243° |
| 2026-05-06 07:11 | 29.81718 | -10.64277 | 34966 ft | 353 kts | 243° |
| 2026-05-06 07:11 | 29.79631 | -10.69396 | 34964 ft | 353 kts | 243° |
| 2026-05-06 07:12 | 29.77542 | -10.74512 | 34965 ft | 353 kts | 243° |
| 2026-05-06 07:12 | 29.75450 | -10.79629 | 34966 ft | 353 kts | 243° |
| 2026-05-06 07:13 | 29.73366 | -10.84721 | 34968 ft | 353 kts | 243° |
| 2026-05-06 07:13 | 29.71269 | -10.89835 | 34970 ft | 354 kts | 243° |
| 2026-05-06 07:14 | 29.69169 | -10.94950 | 34975 ft | 354 kts | 243° |
| 2026-05-06 07:14 | 29.67069 | -11.00060 | 34972 ft | 354 kts | 243° |
| 2026-05-06 07:15 | 29.64962 | -11.05177 | 34976 ft | 353 kts | 243° |
| 2026-05-06 07:15 | 29.62859 | -11.10280 | 34975 ft | 353 kts | 243° |
| 2026-05-06 07:16 | 29.60766 | -11.15349 | 34975 ft | 353 kts | 243° |
| 2026-05-06 07:16 | 29.58658 | -11.20452 | 34978 ft | 353 kts | 243° |
| 2026-05-06 07:17 | 29.56551 | -11.25543 | 34979 ft | 353 kts | 243° |
| 2026-05-06 07:17 | 29.54440 | -11.30635 | 34976 ft | 353 kts | 243° |
| 2026-05-06 07:18 | 29.52330 | -11.35721 | 34976 ft | 353 kts | 243° |
| 2026-05-06 07:18 | 29.50218 | -11.40803 | 34980 ft | 353 kts | 243° |
| 2026-05-06 07:19 | 29.48105 | -11.45882 | 34979 ft | 353 kts | 243° |
| 2026-05-06 07:19 | 29.45989 | -11.50962 | 34983 ft | 353 kts | 243° |
| 2026-05-06 07:20 | 29.43871 | -11.56037 | 34984 ft | 353 kts | 243° |
| 2026-05-06 07:20 | 29.41750 | -11.61116 | 34984 ft | 353 kts | 243° |
| 2026-05-06 07:21 | 29.39643 | -11.66154 | 34983 ft | 353 kts | 243° |
| 2026-05-06 07:21 | 29.37521 | -11.71221 | 34984 ft | 353 kts | 243° |
| 2026-05-06 07:22 | 29.35394 | -11.76291 | 34983 ft | 353 kts | 243° |
| 2026-05-06 07:22 | 29.33266 | -11.81360 | 34988 ft | 353 kts | 243° |
| 2026-05-06 07:23 | 29.31135 | -11.86426 | 34990 ft | 353 kts | 243° |
| 2026-05-06 07:23 | 29.29004 | -11.91489 | 34991 ft | 353 kts | 243° |
| 2026-05-06 07:24 | 29.26869 | -11.96552 | 34990 ft | 353 kts | 243° |
| 2026-05-06 07:24 | 29.24734 | -12.01610 | 34993 ft | 353 kts | 243° |
| 2026-05-06 07:25 | 29.22594 | -12.06673 | 34993 ft | 353 kts | 243° |
| 2026-05-06 07:25 | 29.20455 | -12.11727 | 34994 ft | 353 kts | 243° |
| 2026-05-06 07:26 | 29.18316 | -12.16775 | 34995 ft | 353 kts | 243° |
| 2026-05-06 07:26 | 29.16187 | -12.21791 | 34998 ft | 353 kts | 243° |
| 2026-05-06 07:27 | 29.14041 | -12.26842 | 34997 ft | 353 kts | 243° |
| 2026-05-06 07:27 | 29.11892 | -12.31893 | 34998 ft | 353 kts | 243° |
| 2026-05-06 07:28 | 29.09743 | -12.36937 | 34999 ft | 353 kts | 243° |
| 2026-05-06 07:28 | 29.06528 | -12.44474 | 34997 ft | 353 kts | 243° |
| 2026-05-06 07:29 | 29.04376 | -12.49509 | 34999 ft | 353 kts | 243° |
| 2026-05-06 07:29 | 29.02220 | -12.54547 | 35001 ft | 353 kts | 243° |
| 2026-05-06 07:30 | 29.00063 | -12.59582 | 34999 ft | 353 kts | 243° |
| 2026-05-06 07:30 | 28.97930 | -12.64553 | 35000 ft | 352 kts | 243° |
| 2026-05-06 07:31 | 28.95771 | -12.69581 | 34998 ft | 352 kts | 243° |
| 2026-05-06 07:31 | 28.93624 | -12.74575 | 34999 ft | 352 kts | 243° |
| 2026-05-06 07:32 | 28.91462 | -12.79598 | 35000 ft | 352 kts | 242° |
| 2026-05-06 07:32 | 28.89232 | -12.84577 | 35001 ft | 352 kts | 240° |
| 2026-05-06 07:33 | 28.86845 | -12.89461 | 35003 ft | 352 kts | 240° |
| 2026-05-06 07:33 | 28.84449 | -12.94333 | 35005 ft | 352 kts | 240° |
| 2026-05-06 07:34 | 28.82060 | -12.99221 | 35005 ft | 352 kts | 240° |
| 2026-05-06 07:34 | 28.79681 | -13.04104 | 35005 ft | 352 kts | 240° |
| 2026-05-06 07:35 | 28.77300 | -13.08994 | 35006 ft | 352 kts | 240° |
| 2026-05-06 07:35 | 28.74936 | -13.13844 | 35006 ft | 352 kts | 240° |
| 2026-05-06 07:36 | 28.72554 | -13.18727 | 35004 ft | 353 kts | 240° |
| 2026-05-06 07:36 | 28.70168 | -13.23613 | 35006 ft | 353 kts | 240° |
| 2026-05-06 07:37 | 28.67781 | -13.28494 | 35005 ft | 353 kts | 240° |
| 2026-05-06 07:37 | 28.65390 | -13.33378 | 35006 ft | 353 kts | 240° |
| 2026-05-06 07:38 | 28.62997 | -13.38261 | 35006 ft | 353 kts | 240° |
| 2026-05-06 07:38 | 28.60604 | -13.43138 | 35008 ft | 353 kts | 240° |
| 2026-05-06 07:39 | 28.58209 | -13.48014 | 35006 ft | 353 kts | 240° |
| 2026-05-06 07:39 | 28.55812 | -13.52887 | 35009 ft | 353 kts | 240° |
| 2026-05-06 07:40 | 28.55016 | -13.54504 | 35005 ft | 353 kts | 240° |
| 2026-05-06 07:40 | 28.53318 | -13.57951 | 35005 ft | 353 kts | 240° |
| 2026-05-06 07:41 | 28.50916 | -13.62823 | 35017 ft | 353 kts | 240° |
| 2026-05-06 07:41 | 28.48513 | -13.67692 | 35019 ft | 353 kts | 240° |
| 2026-05-06 07:42 | 28.46107 | -13.72560 | 35020 ft | 353 kts | 240° |
| 2026-05-06 07:42 | 28.44106 | -13.76604 | 35023 ft | 353 kts | 240° |
| 2026-05-06 07:43 | 28.41698 | -13.81467 | 35020 ft | 353 kts | 240° |
| 2026-05-06 07:43 | 28.38894 | -13.87121 | 35024 ft | 353 kts | 240° |
| 2026-05-06 07:44 | 28.36480 | -13.91983 | 35025 ft | 353 kts | 240° |
| 2026-05-06 07:44 | 28.34472 | -13.96022 | 35030 ft | 353 kts | 239° |
| 2026-05-06 07:45 | 28.32086 | -14.00818 | 35017 ft | 353 kts | 239° |
| 2026-05-06 07:45 | 28.29670 | -14.05667 | 35018 ft | 353 kts | 239° |
| 2026-05-06 07:46 | 28.27248 | -14.10523 | 35015 ft | 354 kts | 239° |
| 2026-05-06 07:46 | 28.24820 | -14.15386 | 35005 ft | 354 kts | 239° |
| 2026-05-06 07:47 | 28.22389 | -14.20251 | 35007 ft | 355 kts | 239° |
| 2026-05-06 07:47 | 28.19953 | -14.25116 | 35014 ft | 355 kts | 239° |
| 2026-05-06 07:48 | 28.17515 | -14.29983 | 35014 ft | 355 kts | 239° |
| 2026-05-06 07:48 | 28.15075 | -14.34847 | 35013 ft | 355 kts | 239° |
| 2026-05-06 07:49 | 28.12633 | -14.39710 | 35015 ft | 355 kts | 239° |
| 2026-05-06 07:49 | 28.10192 | -14.44565 | 35015 ft | 355 kts | 239° |
| 2026-05-06 07:50 | 28.07748 | -14.49422 | 35017 ft | 355 kts | 239° |
| 2026-05-06 07:50 | 28.05298 | -14.54285 | 35013 ft | 355 kts | 239° |
| 2026-05-06 07:51 | 28.02868 | -14.59103 | 35016 ft | 355 kts | 239° |
| 2026-05-06 07:51 | 28.00494 | -14.64000 | 35014 ft | 355 kts | 244° |
| 2026-05-06 07:52 | 27.98976 | -14.69267 | 35022 ft | 357 kts | 252° |
| 2026-05-06 07:52 | 27.98402 | -14.71958 | 35005 ft | 346 kts | 252° |
| 2026-05-06 07:52 | 27.97854 | -14.74564 | 35005 ft | 338 kts | 252° |
| 2026-05-06 07:53 | 27.96760 | -14.79700 | 35001 ft | 336 kts | 252° |
| 2026-05-06 07:53 | 27.96203 | -14.82284 | 34734 ft | 336 kts | 252° |
| 2026-05-06 07:53 | 27.95654 | -14.84830 | 34372 ft | 332 kts | 252° |
| 2026-05-06 07:54 | 27.95111 | -14.87342 | 34074 ft | 327 kts | 252° |
| 2026-05-06 07:54 | 27.94572 | -14.89829 | 33656 ft | 324 kts | 252° |
| 2026-05-06 07:54 | 27.94037 | -14.92290 | 33276 ft | 320 kts | 251° |
| 2026-05-06 07:54 | 27.93543 | -14.94564 | 32933 ft | 317 kts | 251° |
| 2026-05-06 07:55 | 27.93028 | -14.96927 | 32594 ft | 313 kts | 251° |
| 2026-05-06 07:55 | 27.92509 | -14.99310 | 32225 ft | 310 kts | 251° |
| 2026-05-06 07:55 | 27.92001 | -15.01637 | 31903 ft | 306 kts | 251° |
| 2026-05-06 07:55 | 27.91493 | -15.03964 | 31550 ft | 303 kts | 251° |
| 2026-05-06 07:56 | 27.90985 | -15.06286 | 31229 ft | 306 kts | 251° |
| 2026-05-06 07:56 | 27.90467 | -15.08642 | 30894 ft | 311 kts | 251° |
| 2026-05-06 07:56 | 27.89948 | -15.11010 | 30544 ft | 309 kts | 251° |
| 2026-05-06 07:56 | 27.89435 | -15.13355 | 30205 ft | 306 kts | 251° |
| 2026-05-06 07:57 | 27.88925 | -15.15682 | 29842 ft | 303 kts | 251° |
| 2026-05-06 07:57 | 27.88422 | -15.17979 | 29495 ft | 299 kts | 251° |
| 2026-05-06 07:57 | 27.87923 | -15.20250 | 29155 ft | 296 kts | 251° |
| 2026-05-06 07:57 | 27.87430 | -15.22496 | 28813 ft | 293 kts | 252° |
| 2026-05-06 07:58 | 27.86936 | -15.24736 | 28482 ft | 297 kts | 252° |
| 2026-05-06 07:58 | 27.86425 | -15.27044 | 28138 ft | 307 kts | 252° |
| 2026-05-06 07:58 | 27.85907 | -15.29393 | 27775 ft | 307 kts | 252° |
| 2026-05-06 07:58 | 27.85396 | -15.31716 | 27438 ft | 303 kts | 252° |
| 2026-05-06 07:59 | 27.84890 | -15.34015 | 27096 ft | 300 kts | 253° |
| 2026-05-06 07:59 | 27.84386 | -15.36297 | 26749 ft | 299 kts | 253° |
| 2026-05-06 07:59 | 27.83882 | -15.38576 | 26409 ft | 299 kts | 253° |
| 2026-05-06 07:59 | 27.83373 | -15.40874 | 26078 ft | 306 kts | 254° |
| 2026-05-06 08:00 | 27.83037 | -15.43280 | 25727 ft | 314 kts | 262° |
| 2026-05-06 08:00 | 27.83035 | -15.45754 | 25375 ft | 316 kts | 270° |
| 2026-05-06 08:00 | 27.83231 | -15.48185 | 25039 ft | 314 kts | 271° |
| 2026-05-06 08:00 | 27.83455 | -15.50634 | 24695 ft | 313 kts | 272° |
| 2026-05-06 08:01 | 27.83682 | -15.53077 | 24355 ft | 312 kts | 272° |
| 2026-05-06 08:01 | 27.83907 | -15.55521 | 24020 ft | 313 kts | 273° |
| 2026-05-06 08:01 | 27.84129 | -15.57978 | 23663 ft | 316 kts | 273° |
| 2026-05-06 08:01 | 27.84348 | -15.60453 | 23268 ft | 318 kts | 274° |
| 2026-05-06 08:02 | 27.84568 | -15.62945 | 22884 ft | 317 kts | 274° |
| 2026-05-06 08:02 | 27.84785 | -15.65415 | 22525 ft | 315 kts | 274° |
| 2026-05-06 08:02 | 27.84998 | -15.67868 | 22153 ft | 312 kts | 274° |
| 2026-05-06 08:02 | 27.85208 | -15.70283 | 21867 ft | 307 kts | 274° |
| 2026-05-06 08:03 | 27.85415 | -15.72687 | 21514 ft | 307 kts | 274° |
| 2026-05-06 08:03 | 27.85621 | -15.75091 | 21194 ft | 308 kts | 274° |
| 2026-05-06 08:03 | 27.85826 | -15.77497 | 20857 ft | 307 kts | 274° |
| 2026-05-06 08:03 | 27.86031 | -15.79894 | 20522 ft | 306 kts | 274° |
| 2026-05-06 08:04 | 27.86234 | -15.82279 | 20181 ft | 304 kts | 274° |
| 2026-05-06 08:04 | 27.86436 | -15.84652 | 19862 ft | 302 kts | 274° |
| 2026-05-06 08:04 | 27.86637 | -15.87013 | 19541 ft | 301 kts | 274° |
| 2026-05-06 08:04 | 27.86836 | -15.89364 | 19216 ft | 299 kts | 274° |
| 2026-05-06 08:05 | 27.87033 | -15.91700 | 18884 ft | 298 kts | 274° |
| 2026-05-06 08:05 | 27.87230 | -15.94029 | 18579 ft | 297 kts | 273° |
| 2026-05-06 08:05 | 27.87425 | -15.96347 | 18258 ft | 296 kts | 273° |
| 2026-05-06 08:05 | 27.87619 | -15.98657 | 17891 ft | 294 kts | 274° |
| 2026-05-06 08:06 | 27.87811 | -16.00954 | 17550 ft | 293 kts | 274° |
| 2026-05-06 08:06 | 27.88002 | -16.03237 | 17221 ft | 291 kts | 274° |
| 2026-05-06 08:06 | 27.88190 | -16.05483 | 16898 ft | 289 kts | 274° |
| 2026-05-06 08:06 | 27.88378 | -16.07738 | 16584 ft | 287 kts | 274° |
| 2026-05-06 08:07 | 27.88564 | -16.09978 | 16267 ft | 285 kts | 274° |
| 2026-05-06 08:07 | 27.88749 | -16.12208 | 15960 ft | 284 kts | 274° |
| 2026-05-06 08:07 | 27.88927 | -16.14355 | 15661 ft | 283 kts | 274° |
| 2026-05-06 08:07 | 27.89109 | -16.16562 | 15356 ft | 281 kts | 274° |
| 2026-05-06 08:08 | 27.89291 | -16.18765 | 15050 ft | 282 kts | 274° |
| 2026-05-06 08:08 | 27.89474 | -16.20984 | 14740 ft | 285 kts | 274° |
| 2026-05-06 08:08 | 27.89657 | -16.23216 | 14436 ft | 285 kts | 275° |
| 2026-05-06 08:08 | 27.89836 | -16.25441 | 14120 ft | 284 kts | 272° |
| 2026-05-06 08:09 | 27.89619 | -16.27641 | 13839 ft | 282 kts | 253° |
| 2026-05-06 08:09 | 27.88907 | -16.29695 | 13558 ft | 280 kts | 248° |
| 2026-05-06 08:09 | 27.88130 | -16.31708 | 13240 ft | 278 kts | 248° |
| 2026-05-06 08:09 | 27.87363 | -16.33710 | 12929 ft | 277 kts | 248° |
| 2026-05-06 08:10 | 27.86604 | -16.35708 | 12617 ft | 276 kts | 248° |
| 2026-05-06 08:10 | 27.85854 | -16.37697 | 12298 ft | 275 kts | 248° |
| 2026-05-06 08:10 | 27.85107 | -16.39686 | 11987 ft | 274 kts | 248° |
| 2026-05-06 08:10 | 27.84364 | -16.41667 | 11678 ft | 273 kts | 248° |
| 2026-05-06 08:11 | 27.83624 | -16.43640 | 11380 ft | 273 kts | 248° |
| 2026-05-06 08:11 | 27.82886 | -16.45611 | 11069 ft | 272 kts | 249° |
| 2026-05-06 08:11 | 27.82149 | -16.47576 | 10776 ft | 271 kts | 248° |
| 2026-05-06 08:11 | 27.81413 | -16.49536 | 10472 ft | 271 kts | 249° |
| 2026-05-06 08:12 | 27.80679 | -16.51490 | 10211 ft | 268 kts | 248° |
| 2026-05-06 08:12 | 27.79958 | -16.53406 | 10089 ft | 263 kts | 249° |
| 2026-05-06 08:12 | 27.79238 | -16.55322 | 9822 ft | 267 kts | 249° |
| 2026-05-06 08:12 | 27.78515 | -16.57243 | 9524 ft | 266 kts | 249° |
| 2026-05-06 08:13 | 27.77795 | -16.59159 | 9228 ft | 264 kts | 248° |
| 2026-05-06 08:13 | 27.77077 | -16.61067 | 8947 ft | 263 kts | 249° |
| 2026-05-06 08:13 | 27.76371 | -16.62940 | 8684 ft | 261 kts | 248° |
| 2026-05-06 08:13 | 27.75661 | -16.64823 | 8572 ft | 254 kts | 248° |
| 2026-05-06 08:14 | 27.74985 | -16.66614 | 8443 ft | 248 kts | 249° |
| 2026-05-06 08:14 | 27.74416 | -16.68407 | 8323 ft | 239 kts | 264° |
| 2026-05-06 08:14 | 27.74568 | -16.70218 | 8167 ft | 233 kts | 289° |
| 2026-05-06 08:14 | 27.75364 | -16.71816 | 7939 ft | 237 kts | 310° |
| 2026-05-06 08:15 | 27.76530 | -16.73145 | 7698 ft | 239 kts | 316° |
| 2026-05-06 08:15 | 27.77764 | -16.74411 | 7436 ft | 239 kts | 317° |
| 2026-05-06 08:15 | 27.78999 | -16.75668 | 7172 ft | 239 kts | 317° |
| 2026-05-06 08:15 | 27.80226 | -16.76931 | 6913 ft | 239 kts | 317° |
| 2026-05-06 08:16 | 27.81448 | -16.78203 | 6650 ft | 239 kts | 317° |
| 2026-05-06 08:16 | 27.82665 | -16.79476 | 6388 ft | 238 kts | 317° |
| 2026-05-06 08:16 | 27.83879 | -16.80751 | 6116 ft | 238 kts | 317° |
| 2026-05-06 08:16 | 27.85089 | -16.82023 | 5867 ft | 236 kts | 317° |
| 2026-05-06 08:17 | 27.86354 | -16.83151 | 5626 ft | 228 kts | 332° |
| 2026-05-06 08:17 | 27.87768 | -16.83867 | 5445 ft | 219 kts | 337° |
| 2026-05-06 08:17 | 27.89160 | -16.84498 | 5226 ft | 213 kts | 337° |
| 2026-05-06 08:17 | 27.90521 | -16.85123 | 5016 ft | 210 kts | 337° |
| 2026-05-06 08:18 | 27.91891 | -16.85694 | 4797 ft | 211 kts | 349° |
| 2026-05-06 08:18 | 27.93336 | -16.85511 | 4576 ft | 212 kts | 24° |
| 2026-05-06 08:18 | 27.94441 | -16.84435 | 4363 ft | 213 kts | 56° |
| 2026-05-06 08:18 | 27.95123 | -16.82966 | 4237 ft | 213 kts | 64° |
| 2026-05-06 08:19 | 27.95743 | -16.81421 | 4014 ft | 218 kts | 64° |
| 2026-05-06 08:19 | 27.96368 | -16.79859 | 3787 ft | 218 kts | 64° |
| 2026-05-06 08:19 | 27.96997 | -16.78308 | 3546 ft | 215 kts | 63° |
| 2026-05-06 08:19 | 27.97640 | -16.76807 | 3316 ft | 210 kts | 64° |
| 2026-05-06 08:20 | 27.98195 | -16.75326 | 3222 ft | 197 kts | 67° |
| 2026-05-06 08:20 | 27.98695 | -16.73895 | 2985 ft | 194 kts | 67° |
| 2026-05-06 08:20 | 27.99174 | -16.72506 | 2737 ft | 191 kts | 67° |
| 2026-05-06 08:20 | 27.99651 | -16.71121 | 2486 ft | 187 kts | 67° |
| 2026-05-06 08:21 | 28.00119 | -16.69764 | 2234 ft | 183 kts | 66° |
| 2026-05-06 08:21 | 28.00581 | -16.68426 | 1998 ft | 178 kts | 66° |
| 2026-05-06 08:21 | 28.01021 | -16.67152 | 1767 ft | 173 kts | 66° |
| 2026-05-06 08:21 | 28.01446 | -16.65921 | 1560 ft | 162 kts | 66° |
| 2026-05-06 08:22 | 28.01838 | -16.64788 | 1338 ft | 145 kts | 67° |
| 2026-05-06 08:22 | 28.02195 | -16.63752 | 1147 ft | 140 kts | 67° |
| 2026-05-06 08:22 | 28.02545 | -16.62744 | 950 ft | 137 kts | 66° |
| 2026-05-06 08:22 | 28.02892 | -16.61738 | 773 ft | 138 kts | 68° |
| 2026-05-06 08:23 | 28.03238 | -16.60735 | 628 ft | 135 kts | 68° |
| 2026-05-06 08:23 | 28.03573 | -16.59768 | 425 ft | 129 kts | 69° |
| 2026-05-06 08:23 | 28.03897 | -16.58829 | 256 ft | 127 kts | 68° |
| 2026-05-06 08:23 | 28.04212 | -16.57925 | 196 ft | 111 kts | 69° |
| 2026-05-06 08:24 | 28.04441 | -16.57269 | 199 ft | 67 kts | 69° |
| 2026-05-06 08:24 | 28.04595 | -16.56956 | 211 ft | 34 kts | 49° |
| 2026-05-06 08:24 | 28.04703 | -16.56818 | 216 ft | 17 kts | 49° |
| 2026-05-06 08:24 | 28.04776 | -16.56842 | 218 ft | 15 kts | 275° |
| 2026-05-06 08:25 | 28.04745 | -16.56951 | 221 ft | 14 kts | 249° |
| 2026-05-06 08:25 | 28.04709 | -16.57053 | 221 ft | 14 kts | 248° |
| 2026-05-06 08:25 | 28.04669 | -16.57149 | 222 ft | 13 kts | 240° |
| 2026-05-06 08:25 | 28.04634 | -16.57242 | 222 ft | 13 kts | 248° |
| 2026-05-06 08:26 | 28.04599 | -16.57341 | 222 ft | 15 kts | 248° |
| 2026-05-06 08:26 | 28.04557 | -16.57462 | 222 ft | 18 kts | 248° |
| 2026-05-06 08:26 | 28.04510 | -16.57598 | 222 ft | 13 kts | 248° |
| 2026-05-06 08:26 | 28.04509 | -16.57669 | 223 ft | 10 kts | 319° |
| 2026-05-06 08:27 | 28.04570 | -16.57701 | 222 ft | 10 kts | 336° |
| 2026-05-06 08:27 | 28.04591 | -16.57765 | 223 ft | 9 kts | 252° |
| 2026-05-06 08:27 | 28.04567 | -16.57834 | 223 ft | 9 kts | 248° |
| 2026-05-06 08:27 | 28.04549 | -16.57895 | 226 ft | 7 kts | 259° |
| 2026-05-06 08:28 | 28.04564 | -16.57907 | 225 ft | 3 kts | 13° |
| 2026-05-06 08:28 | 28.04583 | -16.57903 | 224 ft | 3 kts | 9° |
| 2026-05-06 08:28 | 28.04600 | -16.57901 | 225 ft | 3 kts | 6° |
| 2026-05-06 08:28 | 28.04617 | -16.57899 | 225 ft | 2 kts | 6° |
| 2026-05-06 08:29 | 28.04634 | -16.57897 | 225 ft | 2 kts | 5° |
| 2026-05-06 08:29 | 28.04640 | -16.57896 | 225 ft | 1 kts | 5° |